Time;durP1;ratioP1;P1;durP2;ratioP2;P2;SDS_P1;SDS_P2;PMS_P1;PMS_P2;Temp;Humidity;BMP_temperature;BMP_pressure;BME280_temperature;BME280_humidity;BME280_pressure;Samples;Min_cycle;Max_cycle;Signal;HPM_P1;HPM_P2
2020/12/23 00:01:56;;;;;;;11.43;4.70;;;;;;;1.59;63.31;99758.34;10482244;28;20125;-52
2020/12/23 00:06:59;;;;;;;10.18;4.90;;;;;;;1.50;63.46;99751.81;10494477;28;20053;-52
2020/12/23 00:12:02;;;;;;;14.32;5.78;;;;;;;1.49;64.12;99738.97;10497010;28;20083;-52
2020/12/23 00:17:04;;;;;;;15.57;6.18;;;;;;;1.44;63.60;99738.34;10495725;28;20075;-51
2020/12/23 00:22:07;;;;;;;11.27;4.15;;;;;;;1.53;63.34;99728.38;10495152;28;20389;-52
2020/12/23 00:27:08;;;;;;;14.68;5.45;;;;;;;1.40;63.40;99716.09;10496202;28;20477;-52
2020/12/23 00:32:10;;;;;;;12.02;5.15;;;;;;;1.26;63.34;99712.41;10495264;28;20051;-51
2020/12/23 00:37:12;;;;;;;14.35;5.60;;;;;;;1.29;63.93;99709.66;10496399;28;20048;-51
2020/12/23 00:42:14;;;;;;;13.48;5.22;;;;;;;1.32;63.73;99719.84;10493552;28;20063;-52
2020/12/23 00:47:16;;;;;;;16.05;6.72;;;;;;;1.35;63.61;99708.50;10495613;28;20040;-52
2020/12/23 00:52:18;;;;;;;19.27;8.10;;;;;;;1.25;62.99;99702.94;10497176;28;20048;-52
2020/12/23 00:57:20;;;;;;;17.17;7.07;;;;;;;1.28;63.75;99696.78;10494673;28;20489;-53
2020/12/23 01:02:22;;;;;;;9.65;4.28;;;;;;;1.31;63.80;99697.47;10493750;28;20052;-52
2020/12/23 01:07:24;;;;;;;19.45;7.53;;;;;;;1.22;63.58;99692.72;10495384;28;20139;-52
2020/12/23 01:12:26;;;;;;;18.38;7.53;;;;;;;1.24;63.75;99685.72;10494769;28;20074;-51
2020/12/23 01:17:27;;;;;;;21.00;7.95;;;;;;;1.22;63.88;99682.34;10498568;28;20045;-52
2020/12/23 01:22:30;;;;;;;17.52;7.55;;;;;;;1.24;63.77;99675.38;10502860;28;20056;-52
2020/12/23 01:27:32;;;;;;;19.92;8.43;;;;;;;1.30;63.64;99677.66;10502939;28;20048;-52
2020/12/23 01:32:33;;;;;;;21.38;8.75;;;;;;;1.26;63.64;99676.16;10527850;28;20405;-52
2020/12/23 01:37:39;;;;;;;18.35;7.25;;;;;;;1.30;63.80;99664.72;10537405;28;20473;-52
2020/12/23 01:42:41;;;;;;;21.85;8.20;;;;;;;1.25;63.29;99663.25;10501232;28;20048;-57
2020/12/23 01:47:45;;;;;;;22.02;9.70;;;;;;;1.20;63.73;99658.31;10503814;28;20041;-52
2020/12/23 01:52:48;;;;;;;19.88;8.07;;;;;;;1.24;63.71;99649.47;10504056;28;20087;-52
2020/12/23 01:57:49;;;;;;;17.70;7.55;;;;;;;1.22;63.38;99646.09;10499987;28;20063;-51
2020/12/23 02:02:55;;;;;;;22.52;7.80;;;;;;;1.28;63.45;99645.81;10503598;28;20074;-52
2020/12/23 02:07:57;;;;;;;19.30;7.75;;;;;;;1.24;63.19;99639.13;10500204;28;20755;-52
2020/12/23 02:13:00;;;;;;;21.48;8.57;;;;;;;1.29;63.49;99638.88;10503310;28;20048;-52
2020/12/23 02:18:01;;;;;;;16.75;6.20;;;;;;;1.25;63.65;99630.41;10501180;28;20051;-51
2020/12/23 02:23:04;;;;;;;26.98;9.38;;;;;;;1.30;63.15;99638.00;10500901;28;20072;-52
2020/12/23 02:28:06;;;;;;;26.98;12.02;;;;;;;1.28;63.50;99635.44;10501669;28;20048;-52
2020/12/23 02:33:07;;;;;;;30.42;10.07;;;;;;;1.23;63.02;99618.47;10533054;28;20047;-51
2020/12/23 02:38:10;;;;;;;25.38;9.85;;;;;;;1.19;63.39;99615.19;10544022;28;20048;-52
2020/12/23 02:43:11;;;;;;;22.05;9.23;;;;;;;1.15;63.54;99624.00;10542541;28;20052;-52
2020/12/23 02:48:13;;;;;;;26.25;9.25;;;;;;;1.18;63.22;99613.50;10529033;28;20052;-51
2020/12/23 02:53:16;;;;;;;22.63;9.75;;;;;;;1.33;63.40;99607.59;10499652;28;20048;-52
2020/12/23 02:58:17;;;;;;;18.08;7.57;;;;;;;1.33;63.15;99615.38;10501366;28;20059;-52
2020/12/23 03:03:19;;;;;;;20.92;9.38;;;;;;;1.22;63.10;99604.69;10483348;28;20508;-51
2020/12/23 03:08:21;;;;;;;19.67;7.70;;;;;;;1.23;63.50;99611.56;10505326;28;20049;-51
2020/12/23 03:13:23;;;;;;;14.30;5.25;;;;;;;1.12;62.63;99612.06;10504958;28;20056;-51
2020/12/23 03:18:24;;;;;;;16.27;7.75;;;;;;;0.98;63.19;99618.78;10504098;28;20040;-59
2020/12/23 03:23:27;;;;;;;14.20;6.30;;;;;;;1.00;62.90;99614.38;10503044;28;20048;-51
2020/12/23 03:28:28;;;;;;;17.25;8.32;;;;;;;1.02;63.16;99612.56;10501743;28;20109;-52
2020/12/23 03:33:31;;;;;;;14.48;6.95;;;;;;;1.07;62.46;99606.25;10501220;28;20117;-50
2020/12/23 03:38:33;;;;;;;15.15;5.32;;;;;;;0.97;62.27;99602.44;10501440;28;20056;-52
2020/12/23 03:43:35;;;;;;;16.63;6.05;;;;;;;0.88;62.75;99603.69;10500439;28;20059;-51
2020/12/23 03:48:37;;;;;;;18.60;7.05;;;;;;;1.00;62.59;99598.84;10501299;28;20044;-51
2020/12/23 03:53:41;;;;;;;14.13;6.28;;;;;;;0.85;62.09;99590.91;10500525;28;20048;-51
2020/12/23 03:58:42;;;;;;;16.40;6.43;;;;;;;0.72;62.44;99597.56;10500325;28;20094;-51
2020/12/23 04:03:44;;;;;;;20.98;6.72;;;;;;;0.70;62.38;99601.97;10501785;28;20419;-52
2020/12/23 04:08:47;;;;;;;14.23;6.18;;;;;;;0.75;62.29;99594.84;10500451;28;20044;-51
2020/12/23 04:13:48;;;;;;;14.23;6.10;;;;;;;0.63;62.00;99583.31;10500516;28;20059;-51
2020/12/23 04:18:50;;;;;;;6.45;3.17;;;;;;;0.54;61.40;99582.88;10499989;28;20445;-51
2020/12/23 04:23:53;;;;;;;13.60;5.80;;;;;;;0.33;61.50;99593.28;10501234;28;20063;-51
2020/12/23 04:28:54;;;;;;;12.38;5.20;;;;;;;0.36;61.79;99600.91;10498606;28;20129;-50
2020/12/23 04:33:56;;;;;;;13.80;6.00;;;;;;;0.48;61.75;99596.09;10499089;28;20484;-51
2020/12/23 04:38:58;;;;;;;15.20;7.18;;;;;;;0.56;61.51;99594.00;10499420;28;20048;-52
2020/12/23 04:44:00;;;;;;;13.98;6.32;;;;;;;0.49;61.12;99587.44;10498580;28;20121;-51
2020/12/23 04:49:04;;;;;;;13.50;5.85;;;;;;;0.54;61.74;99578.56;10498555;28;20449;-52
2020/12/23 04:54:07;;;;;;;;;;;;;;;0.60;61.72;99570.50;10498387;28;20093;-52
2020/12/23 04:59:08;;;;;;;9.07;3.80;;;;;;;0.47;61.34;99576.34;10499543;28;19936;-52
2020/12/23 05:04:10;;;;;;;23.38;9.65;;;;;;;0.49;62.17;99577.09;10498403;28;20063;-51
2020/12/23 05:09:14;;;;;;;17.88;7.55;;;;;;;0.41;61.79;99570.53;10499667;28;20056;-51
2020/12/23 05:14:16;;;;;;;;;;;;;;;0.52;61.98;99572.59;10482384;28;20063;-52
2020/12/23 05:19:19;;;;;;;14.25;5.72;;;;;;;0.54;61.33;99569.97;10497733;28;19924;-52
2020/12/23 05:24:26;;;;;;;8.23;4.15;;;;;;;0.57;61.61;99575.00;10498252;28;20060;-51
2020/12/23 05:29:28;;;;;;;12.93;5.82;;;;;;;0.48;61.74;99568.50;10496243;28;20426;-51
2020/12/23 05:34:33;;;;;;;16.27;5.80;;;;;;;0.53;61.60;99553.59;10498403;28;20056;-51
2020/12/23 05:39:36;;;;;;;15.23;6.40;;;;;;;0.61;61.31;99561.81;10498256;28;20040;-51
2020/12/23 05:44:37;;;;;;;17.20;7.70;;;;;;;0.57;61.30;99560.31;10497344;28;20052;-50
2020/12/23 05:49:39;;;;;;;13.45;6.22;;;;;;;0.45;61.04;99572.03;10486954;28;20049;-50
2020/12/23 05:54:43;;;;;;;13.65;5.85;;;;;;;0.26;61.02;99584.13;10457574;28;20041;-52
2020/12/23 05:59:45;;;;;;;10.48;4.55;;;;;;;0.26;61.19;99581.56;10455041;28;20061;-54
2020/12/23 06:04:47;;;;;;;12.27;5.35;;;;;;;0.17;61.10;99582.78;10457171;28;20052;-51
2020/12/23 06:09:53;;;;;;;12.90;5.05;;;;;;;0.01;60.76;99579.22;10462236;28;20485;-52
2020/12/23 06:14:56;;;;;;;11.30;5.97;;;;;;;-0.13;60.85;99579.81;10490455;28;20110;-51
2020/12/23 06:20:00;;;;;;;16.60;6.37;;;;;;;-0.11;60.88;99582.34;10504748;28;20469;-52
2020/12/23 06:25:03;;;;;;;12.85;6.07;;;;;;;-0.04;61.02;99588.91;10502307;28;20048;-50
2020/12/23 06:30:05;;;;;;;16.67;6.83;;;;;;;-0.11;60.21;99590.09;10501762;28;20051;-52
2020/12/23 06:35:07;;;;;;;15.02;6.35;;;;;;;-0.10;60.80;99599.50;10503571;28;20405;-51
2020/12/23 06:40:11;;;;;;;13.13;6.03;;;;;;;-0.12;61.18;99604.75;10503732;28;20040;-51
2020/12/23 06:45:14;;;;;;;13.20;6.15;;;;;;;-0.14;60.47;99596.22;10501739;28;20049;-51
2020/12/23 06:50:30;;;;;;;12.23;5.35;;;;;;;-0.40;59.75;99601.66;10497420;28;20146;-53
2020/12/23 06:55:47;;;;;;;13.73;5.68;;;;;;;-0.51;60.45;99602.09;10500084;28;20079;-51
2020/12/23 07:00:48;;;;;;;14.82;6.75;;;;;;;-0.43;60.67;99600.06;10499624;28;20057;-52
2020/12/23 07:05:50;;;;;;;15.88;6.15;;;;;;;-0.09;60.61;99594.28;10499951;28;20056;-52
2020/12/23 07:10:53;;;;;;;17.80;6.20;;;;;;;0.07;59.85;99596.22;10500904;28;20060;-51
2020/12/23 07:15:57;;;;;;;15.73;6.07;;;;;;;0.22;60.21;99600.72;10501944;28;20049;-51
2020/12/23 07:21:03;;;;;;;11.10;4.57;;;;;;;0.63;61.30;99592.81;10501103;28;20546;-53
2020/12/23 07:26:08;;;;;;;12.98;5.47;;;;;;;0.60;58.97;99600.72;10501796;28;20384;-52
2020/12/23 07:31:11;;;;;;;17.98;5.60;;;;;;;0.42;58.29;99592.03;10503372;28;20528;-52
2020/12/23 07:36:12;;;;;;;16.75;6.20;;;;;;;1.35;59.79;99592.78;10499538;28;20056;-53
2020/12/23 07:41:15;;;;;;;14.27;6.60;;;;;;;1.68;57.42;99599.00;10496919;28;20790;-52
2020/12/23 07:46:22;;;;;;;12.70;5.38;;;;;;;2.77;58.64;99594.09;10497626;28;20389;-52
2020/12/23 07:51:24;;;;;;;10.15;4.50;;;;;;;3.96;55.06;99591.63;10498011;28;20075;-52
2020/12/23 07:56:27;;;;;;;10.30;5.20;;;;;;;5.25;59.08;99578.38;10497293;28;20359;-54
2020/12/23 08:01:29;;;;;;;13.07;5.25;;;;;;;5.31;55.79;99578.81;10497259;28;20055;-54
2020/12/23 08:06:30;;;;;;;13.30;6.35;;;;;;;3.98;52.94;99579.38;10498691;28;20048;-52
2020/12/23 08:11:33;;;;;;;11.20;4.68;;;;;;;3.03;52.31;99577.09;10497264;28;20048;-53
2020/12/23 08:16:35;;;;;;;12.00;5.10;;;;;;;2.40;51.21;99571.91;10496800;28;20055;-58
2020/12/23 08:21:37;;;;;;;14.57;5.80;;;;;;;2.24;52.71;99564.94;10495627;28;20052;-51
2020/12/23 08:26:40;;;;;;;11.38;4.72;;;;;;;2.20;51.93;99567.78;10471659;28;20060;-56
2020/12/23 08:31:45;;;;;;;13.43;4.50;;;;;;;1.67;51.51;99569.66;10454920;28;20044;-53
2020/12/23 08:36:51;;;;;;;9.38;4.20;;;;;;;1.58;53.11;99563.19;10453011;28;20068;-53
2020/12/23 08:41:54;;;;;;;8.85;4.00;;;;;;;1.65;52.96;99552.50;10453394;28;20057;-53
2020/12/23 08:46:56;;;;;;;11.20;4.15;;;;;;;1.34;52.02;99557.47;10455453;28;20129;-53
2020/12/23 08:51:58;;;;;;;12.10;5.22;;;;;;;1.51;53.14;99548.88;10455800;28;20053;-54
2020/12/23 08:57:03;;;;;;;7.15;2.53;;;;;;;1.38;52.07;99543.44;10471830;28;20060;-52
2020/12/23 09:02:10;;;;;;;12.52;3.33;;;;;;;1.27;52.58;99545.75;10495761;28;20363;-53
2020/12/23 09:07:19;;;;;;;11.65;4.57;;;;;;;2.51;54.00;99546.22;10496431;28;20056;-53
2020/12/23 09:12:22;;;;;;;9.23;3.45;;;;;;;4.29;49.53;99531.50;10495671;28;20079;-53
2020/12/23 09:17:25;;;;;;;8.60;3.92;;;;;;;5.72;51.12;99535.28;10487884;28;20037;-53
2020/12/23 09:22:29;;;;;;;9.23;3.72;;;;;;;6.03;50.19;99534.03;10456607;28;20053;-55
2020/12/23 09:27:32;;;;;;;;;;;;;;;5.20;43.93;99507.47;10455201;28;20045;-54
2020/12/23 09:32:33;;;;;;;8.15;3.53;;;;;;;3.90;45.86;99513.97;10454430;28;19934;-57
2020/12/23 09:37:35;;;;;;;12.27;4.40;;;;;;;3.04;47.49;99518.19;10457095;28;20044;-56
2020/12/23 09:42:38;;;;;;;7.53;3.70;;;;;;;2.74;48.77;99516.38;10465827;28;20083;-56
2020/12/23 09:47:43;;;;;;;11.13;4.77;;;;;;;2.26;47.52;99511.22;10497204;28;20041;-55
2020/12/23 09:52:44;;;;;;;14.45;5.35;;;;;;;2.11;49.17;99512.06;10503283;28;20618;-54
2020/12/23 09:57:47;;;;;;;12.32;5.00;;;;;;;1.88;49.79;99487.38;10502680;28;20060;-54
2020/12/23 10:02:48;;;;;;;10.38;3.25;;;;;;;1.69;49.27;99495.25;10501958;28;20060;-55
2020/12/23 10:07:50;;;;;;;10.50;4.63;;;;;;;1.35;48.72;99486.59;10502100;28;20044;-54
2020/12/23 10:12:53;;;;;;;7.85;3.38;;;;;;;1.00;49.79;99485.78;10500201;28;20109;-54
2020/12/23 10:17:54;;;;;;;6.63;2.63;;;;;;;0.63;49.50;99476.41;10502537;28;20040;-54
2020/12/23 10:22:56;;;;;;;10.20;3.70;;;;;;;0.40;50.09;99485.25;10502838;28;20045;-55
2020/12/23 10:27:58;;;;;;;8.18;3.45;;;;;;;0.25;50.79;99475.59;10500006;28;20059;-55
2020/12/23 10:33:00;;;;;;;9.25;3.55;;;;;;;0.03;50.85;99476.59;10484716;28;20067;-53
2020/12/23 10:38:02;;;;;;;7.60;3.03;;;;;;;-0.04;51.70;99460.53;10498698;28;20102;-54
2020/12/23 10:43:04;;;;;;;6.10;2.42;;;;;;;-0.07;52.30;99459.84;10500392;28;20555;-55
2020/12/23 10:48:06;;;;;;;9.10;2.50;;;;;;;0.01;52.49;99451.75;10498840;28;20051;-54
2020/12/23 10:53:07;;;;;;;8.00;3.63;;;;;;;-0.06;51.83;99453.78;10499180;28;20040;-54
2020/12/23 10:58:10;;;;;;;9.38;3.17;;;;;;;-0.10;52.21;99447.91;10493864;28;20070;-56
2020/12/23 11:03:12;;;;;;;9.57;3.80;;;;;;;-0.10;52.52;99454.81;10500670;28;20109;-54
2020/12/23 11:08:13;;;;;;;7.20;3.25;;;;;;;-0.19;53.00;99456.06;10496369;28;20151;-54
2020/12/23 11:13:16;;;;;;;4.68;1.83;;;;;;;-0.28;52.49;99451.31;10498462;28;20385;-56
2020/12/23 11:18:18;;;;;;;6.00;2.35;;;;;;;-0.55;53.44;99445.66;10500936;28;20106;-54
2020/12/23 11:23:26;;;;;;;9.68;3.50;;;;;;;-0.51;53.06;99434.25;10498715;28;20535;-54
2020/12/23 11:28:30;;;;;;;6.25;2.35;;;;;;;-0.61;53.12;99435.59;10498110;28;20484;-55
2020/12/23 11:33:31;;;;;;;5.95;2.10;;;;;;;-0.75;53.37;99425.84;10498688;28;20049;-54
2020/12/23 11:38:33;;;;;;;14.25;5.13;;;;;;;-0.88;53.51;99424.69;10498688;28;20052;-56
2020/12/23 11:43:36;;;;;;;7.88;2.92;;;;;;;-0.91;53.61;99430.00;10497056;28;20040;-54
2020/12/23 11:48:39;;;;;;;5.43;1.98;;;;;;;-1.05;53.43;99422.81;10497549;28;20393;-54
2020/12/23 11:53:43;;;;;;;9.18;3.67;;;;;;;-1.17;53.43;99430.19;10498927;28;20060;-55
2020/12/23 11:58:45;;;;;;;;;;;;;;;-1.31;54.05;99426.50;10498047;28;20441;-54
2020/12/23 12:03:47;;;;;;;6.30;2.25;;;;;;;-1.27;53.98;99430.63;10498796;28;19934;-54
2020/12/23 12:08:49;;;;;;;3.78;1.13;;;;;;;-1.37;54.10;99432.75;10484183;28;20504;-54
2020/12/23 12:13:52;;;;;;;8.68;3.85;;;;;;;-1.34;54.33;99429.19;10476261;28;20093;-53
2020/12/23 12:18:53;;;;;;;4.63;2.00;;;;;;;-1.37;54.56;99426.75;10496379;28;20058;-53
2020/12/23 12:23:55;;;;;;;8.82;3.72;;;;;;;-1.48;54.32;99416.84;10494994;28;20055;-53
2020/12/23 12:28:58;;;;;;;7.55;3.22;;;;;;;-1.57;54.48;99415.50;10494739;28;20504;-54
2020/12/23 12:34:00;;;;;;;10.73;2.95;;;;;;;-1.51;54.62;99425.56;10496048;28;20084;-57
2020/12/23 12:39:01;;;;;;;8.05;2.90;;;;;;;-1.56;54.79;99421.50;10497876;28;20056;-55
2020/12/23 12:44:05;;;;;;;10.05;3.53;;;;;;;-1.67;54.81;99420.16;10485147;28;20040;-56
2020/12/23 12:49:07;;;;;;;5.60;2.22;;;;;;;-1.74;54.64;99420.50;10494230;28;20091;-54
2020/12/23 12:54:09;;;;;;;8.75;2.58;;;;;;;-1.81;55.20;99416.47;10496024;28;20048;-54
2020/12/23 12:59:11;;;;;;;7.75;2.60;;;;;;;-1.89;54.91;99420.16;10496899;28;20068;-52
2020/12/23 13:04:13;;;;;;;7.38;2.53;;;;;;;-1.92;55.45;99422.03;10491540;28;20481;-53
2020/12/23 13:09:15;;;;;;;7.25;2.58;;;;;;;-1.99;55.23;99405.97;10493119;28;20048;-53
2020/12/23 13:14:17;;;;;;;6.68;2.80;;;;;;;-1.96;55.21;99403.28;10496321;28;20151;-54
2020/12/23 13:19:19;;;;;;;5.40;2.22;;;;;;;-2.14;55.27;99399.69;10500190;28;20063;-56
2020/12/23 13:24:21;;;;;;;9.30;3.72;;;;;;;-2.21;55.48;99393.09;10501618;28;20049;-53
2020/12/23 13:29:23;;;;;;;8.20;3.38;;;;;;;-2.22;55.70;99398.28;10502304;28;20474;-54
2020/12/23 13:34:25;;;;;;;8.20;2.63;;;;;;;-2.34;55.76;99395.28;10501169;28;20055;-55
2020/12/23 13:39:26;;;;;;;8.48;3.50;;;;;;;-2.35;56.14;99385.88;10500746;28;20048;-54
2020/12/23 13:44:29;;;;;;;5.28;1.55;;;;;;;-2.32;56.39;99385.75;10499070;28;20044;-56
2020/12/23 13:49:31;;;;;;;4.70;2.00;;;;;;;-2.38;56.46;99370.53;10500597;28;20045;-54
2020/12/23 13:54:33;;;;;;;6.40;2.03;;;;;;;-2.33;56.63;99376.38;10500149;28;20385;-55
2020/12/23 13:59:35;;;;;;;8.82;2.00;;;;;;;-2.32;56.63;99378.03;10501191;28;20519;-55
2020/12/23 14:04:37;;;;;;;5.07;1.90;;;;;;;-2.30;56.64;99369.44;10500620;28;20378;-56
2020/12/23 14:09:39;;;;;;;5.30;2.45;;;;;;;-2.37;56.62;99387.69;10499486;28;20044;-55
2020/12/23 14:14:41;;;;;;;5.82;2.13;;;;;;;-2.47;56.52;99370.03;10499295;28;20052;-49
2020/12/23 14:19:43;;;;;;;3.83;1.63;;;;;;;-2.56;56.84;99376.38;10499779;28;20040;-47
2020/12/23 14:24:44;;;;;;;5.30;1.90;;;;;;;-2.59;56.96;99367.03;10498470;28;20408;-51
2020/12/23 14:29:47;;;;;;;3.47;1.38;;;;;;;-2.62;56.75;99348.28;10498575;28;20048;-49
2020/12/23 14:34:49;;;;;;;6.97;3.03;;;;;;;-2.71;56.88;99369.22;10499975;28;20397;-50
2020/12/23 14:39:50;;;;;;;6.13;1.95;;;;;;;-2.83;56.86;99368.78;10501939;28;20067;-49
2020/12/23 14:44:53;;;;;;;6.10;2.30;;;;;;;-2.92;57.41;99363.97;10501272;28;20048;-49
2020/12/23 14:49:54;;;;;;;7.03;2.15;;;;;;;-2.99;57.51;99357.34;10500903;28;20102;-49
2020/12/23 14:54:56;;;;;;;4.47;2.13;;;;;;;-3.07;57.40;99377.34;10500676;28;20048;-50
2020/12/23 14:59:59;;;;;;;7.18;2.42;;;;;;;-3.05;57.46;99363.56;10500759;28;20129;-48
2020/12/23 15:05:01;;;;;;;4.60;2.35;;;;;;;-3.01;57.19;99359.97;10501124;28;20451;-50
2020/12/23 15:10:03;;;;;;;5.72;1.70;;;;;;;-3.18;57.02;99358.88;10500774;28;20469;-52
2020/12/23 15:15:05;;;;;;;3.42;1.55;;;;;;;-3.33;56.85;99348.22;10499242;28;20397;-51
2020/12/23 15:20:07;;;;;;;5.63;2.00;;;;;;;-3.50;56.92;99350.53;10501103;28;20051;-50
2020/12/23 15:25:09;;;;;;;5.32;1.13;;;;;;;-3.61;57.10;99355.19;10500635;28;20118;-53
2020/12/23 15:30:11;;;;;;;7.50;2.40;;;;;;;-3.74;57.23;99358.16;10500470;28;20059;-50
2020/12/23 15:35:13;;;;;;;7.22;3.25;;;;;;;-3.81;56.91;99348.97;10499567;28;20051;-50
2020/12/23 15:40:14;;;;;;;8.10;2.45;;;;;;;-3.83;57.19;99355.06;10499574;28;20098;-50
2020/12/23 15:45:17;;;;;;;3.78;1.63;;;;;;;-3.90;57.47;99359.53;10497121;28;20053;-50
2020/12/23 15:50:19;;;;;;;7.45;3.20;;;;;;;-3.90;57.43;99346.72;10498540;28;20044;-50
2020/12/23 15:55:20;;;;;;;3.03;1.73;;;;;;;-3.90;57.69;99346.72;10498697;28;20496;-54
2020/12/23 16:00:23;;;;;;;4.28;1.52;;;;;;;-3.83;57.77;99348.19;10461855;28;20057;-49
2020/12/23 16:05:25;;;;;;;5.10;2.47;;;;;;;-3.77;57.31;99347.97;10457274;28;20072;-50
2020/12/23 16:10:26;;;;;;;5.63;2.25;;;;;;;-3.74;57.16;99353.03;10457323;28;20166;-50
2020/12/23 16:15:29;;;;;;;6.72;2.50;;;;;;;-3.63;56.93;99349.25;10491722;28;20056;-49
2020/12/23 16:20:31;;;;;;;5.63;1.70;;;;;;;-3.63;56.98;99344.13;10497296;28;20048;-49
2020/12/23 16:25:32;;;;;;;7.70;2.70;;;;;;;-3.66;56.84;99350.22;10497574;28;20072;-50
2020/12/23 16:30:36;;;;;;;4.43;1.95;;;;;;;-3.81;56.44;99346.41;10473752;28;20095;-50
2020/12/23 16:35:39;;;;;;;4.18;1.70;;;;;;;-3.71;56.90;99337.50;10455978;28;20048;-49
2020/12/23 16:40:41;;;;;;;6.93;3.13;;;;;;;-3.82;56.08;99344.72;10456142;28;20114;-50
2020/12/23 16:45:43;;;;;;;5.60;2.95;;;;;;;-3.85;56.08;99344.81;10490490;28;20049;-52
2020/12/23 16:50:45;;;;;;;8.48;3.95;;;;;;;-3.95;55.72;99333.16;10492901;28;20052;-50
2020/12/23 16:55:47;;;;;;;8.82;3.28;;;;;;;-4.01;55.75;99344.47;10495140;28;20675;-49
2020/12/23 17:00:49;;;;;;;10.15;3.85;;;;;;;-3.87;55.86;99354.31;10493733;28;20500;-49
2020/12/23 17:05:51;;;;;;;4.53;2.20;;;;;;;-3.95;55.18;99353.72;10494547;28;20055;-50
2020/12/23 17:10:53;;;;;;;7.22;3.17;;;;;;;-3.89;55.85;99348.38;10493370;28;20535;-49
2020/12/23 17:15:55;;;;;;;13.02;5.30;;;;;;;-3.75;55.41;99350.53;10493443;28;20052;-50
2020/12/23 17:20:57;;;;;;;6.72;3.28;;;;;;;-3.68;54.64;99351.16;10494637;28;20099;-51
2020/12/23 17:25:59;;;;;;;7.50;3.35;;;;;;;-3.90;55.15;99358.72;10494500;28;20143;-50
2020/12/23 17:31:01;;;;;;;8.55;3.20;;;;;;;-3.90;54.87;99362.13;10494621;28;20402;-50
2020/12/23 17:36:03;;;;;;;5.70;2.65;;;;;;;-3.97;54.59;99363.22;10494313;28;20455;-48
2020/12/23 17:41:05;;;;;;;9.95;4.43;;;;;;;-3.99;55.06;99347.00;10491915;28;20044;-50
2020/12/23 17:46:07;;;;;;;10.63;4.90;;;;;;;-3.80;54.89;99345.50;10492867;28;20139;-49
2020/12/23 17:51:09;;;;;;;7.60;3.55;;;;;;;-3.95;54.37;99346.84;10493665;28;20044;-49
2020/12/23 17:56:11;;;;;;;7.47;3.00;;;;;;;-4.07;54.62;99343.81;10492383;28;20508;-51
2020/12/23 18:01:14;;;;;;;7.95;3.25;;;;;;;-4.17;54.62;99344.09;10497822;28;20053;-49
2020/12/23 18:06:16;;;;;;;9.20;4.20;;;;;;;-4.19;54.64;99340.78;10500482;28;20044;-51
2020/12/23 18:11:18;;;;;;;4.25;1.67;;;;;;;-4.13;54.58;99338.88;10499358;28;20782;-50
2020/12/23 18:16:22;;;;;;;9.93;3.65;;;;;;;-4.28;54.18;99346.19;10499105;28;20056;-53
2020/12/23 18:21:25;;;;;;;16.33;4.97;;;;;;;-4.29;54.24;99339.34;10504186;28;20447;-50
2020/12/23 18:26:28;;;;;;;16.27;5.53;;;;;;;-4.20;54.28;99333.94;10502815;28;20056;-49
2020/12/23 18:31:30;;;;;;;7.20;3.33;;;;;;;-4.10;54.13;99323.38;10499322;28;20048;-49
2020/12/23 18:36:32;;;;;;;12.98;4.80;;;;;;;-4.04;53.84;99320.63;10499384;28;20048;-51
2020/12/23 18:41:35;;;;;;;11.88;4.07;;;;;;;-4.12;53.62;99314.91;10498771;28;20056;-49
2020/12/23 18:46:37;;;;;;;10.63;4.23;;;;;;;-4.34;53.24;99314.72;10496127;28;20049;-50
2020/12/23 18:51:39;;;;;;;13.48;5.50;;;;;;;-4.37;53.64;99310.53;10500850;28;20046;-50
2020/12/23 18:56:41;;;;;;;18.60;6.25;;;;;;;-4.27;53.40;99296.53;10497804;28;20382;-50
2020/12/23 19:01:49;;;;;;;5.88;2.42;;;;;;;-4.29;52.97;99297.44;10497700;28;20465;-50
2020/12/23 19:06:51;;;;;;;6.85;3.65;;;;;;;-4.45;53.02;99304.78;10497606;28;20053;-50
2020/12/23 19:11:52;;;;;;;9.88;4.35;;;;;;;-4.64;52.99;99294.25;10496376;28;20501;-49
2020/12/23 19:16:55;;;;;;;6.53;2.42;;;;;;;-4.59;53.26;99291.53;10497238;28;20055;-48
2020/12/23 19:21:56;;;;;;;17.20;5.57;;;;;;;-4.55;53.39;99300.84;10497405;28;20235;-50
2020/12/23 19:26:58;;;;;;;7.38;3.05;;;;;;;-4.56;53.20;99294.00;10496619;28;20408;-50
2020/12/23 19:32:00;;;;;;;5.18;2.08;;;;;;;-4.43;52.74;99310.72;10496224;28;20041;-49
2020/12/23 19:37:03;;;;;;;9.95;4.22;;;;;;;-4.52;52.67;99305.88;10496719;28;20049;-49
2020/12/23 19:42:05;;;;;;;7.90;2.63;;;;;;;-4.59;52.93;99300.06;10495277;28;20460;-48
2020/12/23 19:47:07;;;;;;;12.43;4.70;;;;;;;-4.58;52.96;99317.16;10497107;28;20056;-50
2020/12/23 19:52:09;;;;;;;10.53;4.63;;;;;;;-4.49;52.65;99318.59;10496736;28;20041;-50
2020/12/23 19:57:11;;;;;;;7.55;3.05;;;;;;;-4.53;52.76;99315.25;10495017;28;20393;-49
2020/12/23 20:02:14;;;;;;;10.50;3.25;;;;;;;-4.65;52.86;99320.75;10494884;28;20492;-51
2020/12/23 20:07:15;;;;;;;8.30;3.17;;;;;;;-4.83;52.87;99311.91;10495639;28;20048;-49
2020/12/23 20:12:17;;;;;;;9.80;3.05;;;;;;;-4.87;53.12;99317.97;10493620;28;20040;-51
2020/12/23 20:17:20;;;;;;;10.18;4.55;;;;;;;-4.91;53.19;99318.97;10495278;28;20074;-50
2020/12/23 20:22:21;;;;;;;6.80;2.83;;;;;;;-4.96;53.34;99318.25;10493461;28;20048;-52
2020/12/23 20:27:23;;;;;;;7.57;3.03;;;;;;;-5.09;53.67;99308.34;10495912;28;20063;-51
2020/12/23 20:32:26;;;;;;;8.88;3.22;;;;;;;-5.10;53.65;99309.22;10495135;28;20052;-50
2020/12/23 20:37:28;;;;;;;10.45;4.10;;;;;;;-4.92;53.63;99299.34;10495283;28;20146;-50
2020/12/23 20:42:29;;;;;;;7.90;2.28;;;;;;;-4.73;53.34;99313.31;10494132;28;20056;-50
2020/12/23 20:47:32;;;;;;;12.50;5.32;;;;;;;-4.77;53.58;99306.59;10492885;28;20063;-49
2020/12/23 20:52:34;;;;;;;12.57;4.77;;;;;;;-4.72;53.51;99304.72;10494611;28;20484;-50
2020/12/23 20:57:36;;;;;;;11.00;4.28;;;;;;;-4.58;53.74;99295.78;10493103;28;20297;-50
2020/12/23 21:02:39;;;;;;;5.47;2.83;;;;;;;-4.53;53.26;99288.78;10494376;28;20401;-52
2020/12/23 21:07:40;;;;;;;8.65;2.85;;;;;;;-4.65;53.28;99293.41;10493683;28;20056;-52
2020/12/23 21:12:42;;;;;;;6.63;2.97;;;;;;;-4.76;53.51;99298.00;10492309;28;20040;-53
2020/12/23 21:17:45;;;;;;;4.43;2.13;;;;;;;-4.87;53.69;99290.63;10491926;28;20041;-51
2020/12/23 21:22:46;;;;;;;3.63;1.53;;;;;;;-4.95;53.88;99284.06;10495029;28;20041;-48
2020/12/23 21:27:49;;;;;;;6.30;2.13;;;;;;;-5.02;54.32;99292.78;10493003;28;20044;-50
2020/12/23 21:32:52;;;;;;;10.48;3.40;;;;;;;-4.91;54.23;99294.16;10493354;28;20079;-50
2020/12/23 21:37:53;;;;;;;10.57;2.65;;;;;;;-4.94;53.99;99288.28;10499506;28;20516;-50
2020/12/23 21:42:55;;;;;;;8.88;2.63;;;;;;;-5.00;54.41;99288.47;10500694;28;20045;-49
2020/12/23 21:47:58;;;;;;;11.15;3.00;;;;;;;-5.13;54.44;99281.13;10502766;28;20040;-51
2020/12/23 21:52:59;;;;;;;10.93;3.53;;;;;;;-5.16;54.84;99293.19;10501194;28;20048;-50
2020/12/23 21:58:01;;;;;;;9.43;2.92;;;;;;;-5.22;54.88;99283.94;10500320;28;20159;-51
2020/12/23 22:03:03;;;;;;;7.05;2.53;;;;;;;-5.30;55.17;99274.78;10501264;28;20051;-51
2020/12/23 22:08:05;;;;;;;5.47;2.53;;;;;;;-5.32;55.19;99272.28;10496071;28;20056;-51
2020/12/23 22:13:07;;;;;;;4.68;2.22;;;;;;;-5.29;55.24;99266.22;10501531;28;20396;-50
2020/12/23 22:18:10;;;;;;;11.02;4.82;;;;;;;-5.22;55.23;99268.56;10502400;28;20143;-50
2020/12/23 22:23:11;;;;;;;5.83;2.90;;;;;;;-5.11;55.22;99271.66;10502280;28;20207;-49
2020/12/23 22:28:13;;;;;;;6.80;2.08;;;;;;;-5.05;55.18;99274.94;10501546;28;20210;-51
2020/12/23 22:33:15;;;;;;;6.50;2.05;;;;;;;-5.11;55.02;99268.25;10502130;28;20059;-51
2020/12/23 22:38:17;;;;;;;3.73;1.90;;;;;;;-5.16;55.14;99273.50;10501876;28;20503;-49
2020/12/23 22:43:19;;;;;;;7.60;3.28;;;;;;;-5.15;55.04;99271.78;10501550;28;20048;-50
2020/12/23 22:48:21;;;;;;;6.90;2.75;;;;;;;-5.17;55.61;99274.41;10501546;28;20053;-50
2020/12/23 22:53:23;;;;;;;5.03;1.97;;;;;;;-5.09;55.44;99269.88;10502766;28;20048;-51
2020/12/23 22:58:25;;;;;;;7.65;3.22;;;;;;;-5.16;55.53;99263.25;10500264;28;20500;-49
2020/12/23 23:03:28;;;;;;;6.22;2.83;;;;;;;-5.25;55.87;99262.69;10501846;28;20117;-54
2020/12/23 23:08:29;;;;;;;8.70;2.45;;;;;;;-5.29;56.49;99272.19;10501417;28;20040;-55
2020/12/23 23:13:31;;;;;;;8.00;3.55;;;;;;;-5.35;56.91;99277.47;10492073;28;20060;-50
2020/12/23 23:18:34;;;;;;;10.07;3.40;;;;;;;-5.26;57.11;99277.22;10500075;28;20040;-52
2020/12/23 23:23:36;;;;;;;3.65;2.08;;;;;;;-5.19;57.12;99283.03;10499735;28;20378;-50
2020/12/23 23:28:37;;;;;;;9.63;3.83;;;;;;;-5.19;57.16;99277.91;10499640;28;20067;-51